SUMU Airport Information

Runway Information
Runway 01 Length 7382 ft width 148 ft
Elevation 62 ft Threshold 0 ft Heading 359
Runway 19 Length 7382 ft Width 148 ft
Elevation 51 ft Threshold 0 ft Heading 179
Runway 06 Length 10499 ft width 148 ft
Elevation 49 ft Threshold 1150 ft Heading 53
Runway 24 Length 10499 ft Width 148 ft
Elevation 105 ft Threshold 490 ft Heading 233
Runway 10 Length 5577 ft width 148 ft
Elevation 59 ft Threshold 0 ft Heading 91
Runway 28 Length 5577 ft Width 148 ft
Elevation 75 ft Threshold 0 ft Heading 271
Airport Frequencies
Type APP Name APP Frequency 119.2 MHZ
Type MISC Name CXK CARRAS Frequency 545.1 MHZ
Type PTD Name A/F CARRAS Frequency 831.5 MHZ
Type RDO Name RDO Frequency 553.5 MHZ
Type TWR Name TWR Frequency 118.1 MHZ
Airport Navaids
Type NDB Name Carrasco Frequency 260 KHZ
Type NDB Name Carrasco Frequency 280 KHZ
Type NDB Name Carrasco Frequency 380 KHZ
Type VOR-DME Name Carrasco Frequency 116900 KHZ
Airport Weather Information & NOTAM
ADDS - METARS form results

(1452 UTC 22 July 2018)
 
METAR text: SUMU 221400Z 34007KT CAVOK 09/04 Q1021 NOSIG
Conditions at: SUMU (CARRASCO (CIV/MI, UY) observed 1400 UTC 22 July 2018
Temperature: 9.0°C (48°F)
Dewpoint: 4.0°C (39°F) [RH = 71%]
Pressure (altimeter): 30.15 inches Hg (1021.0 mb)
Winds: from the NNW (340 degrees) at 8 MPH (7 knots; 3.6 m/s)
Visibility: 6 or more miles (10+ km)
Ceiling: ceiling and visibility are OK
Clouds: unknown
Weather: no significant weather observed at this time